Time;durP1;ratioP1;P1;durP2;ratioP2;P2;SDS_P1;SDS_P2;PMS_P1;PMS_P2;Temp;Humidity;BMP_temperature;BMP_pressure;BME280_temperature;BME280_humidity;BME280_pressure;Samples;Min_cycle;Max_cycle;Signal;HPM_P1;HPM_P2
2024/01/31 00:00:12;;;;;;;21.60;11.00;;;;;;;0.98;65.76;100640.16;108633;1254;108934;-79
2024/01/31 00:03:00;;;;;;;17.30;9.30;;;;;;;0.98;66.22;100642.43;108694;1254;96348;-77
2024/01/31 00:05:28;;;;;;;18.30;9.90;;;;;;;0.96;66.21;100638.07;108668;1254;107815;-80
2024/01/31 00:07:57;;;;;;;16.00;9.80;;;;;;;0.95;66.09;100637.73;108661;1254;94400;-81
2024/01/31 00:10:24;;;;;;;19.70;10.70;;;;;;;0.94;66.28;100636.00;108661;1254;94256;-76
2024/01/31 00:12:52;;;;;;;19.50;10.20;;;;;;;0.91;66.33;100637.05;108567;1254;110663;-80
2024/01/31 00:15:20;;;;;;;19.40;9.80;;;;;;;0.90;66.11;100636.71;108643;1254;94942;-76
2024/01/31 00:17:48;;;;;;;16.60;10.40;;;;;;;0.89;66.12;100636.89;108674;1253;107162;-80
2024/01/31 00:20:16;;;;;;;17.00;8.90;;;;;;;0.88;66.27;100633.23;108641;1253;94375;-76
2024/01/31 00:22:44;;;;;;;18.20;10.60;;;;;;;0.88;66.24;100636.91;108721;1254;94514;-76
2024/01/31 00:25:12;;;;;;;16.10;9.50;;;;;;;0.88;66.22;100639.53;108668;1254;109758;-81
2024/01/31 00:27:40;;;;;;;13.00;7.90;;;;;;;0.86;66.12;100636.40;108768;1254;95244;-80
2024/01/31 00:30:10;;;;;;;20.60;11.20;;;;;;;0.84;66.02;100637.45;108646;1254;107266;-78
2024/01/31 00:32:38;;;;;;;16.60;8.70;;;;;;;0.83;66.12;100638.16;108663;1254;94687;-80
2024/01/31 00:35:06;;;;;;;14.80;7.00;;;;;;;0.82;66.42;100640.98;108734;1252;94417;-81
2024/01/31 00:37:34;;;;;;;18.70;10.60;;;;;;;0.80;66.18;100637.85;108748;1254;109917;-78
2024/01/31 00:40:05;;;;;;;18.60;9.50;;;;;;;0.81;66.39;100638.19;108696;1254;95446;-81
2024/01/31 00:42:33;;;;;;;16.10;9.10;;;;;;;0.80;66.43;100642.56;108663;1254;107132;-80
2024/01/31 00:45:01;;;;;;;15.60;9.20;;;;;;;0.79;66.38;100637.16;108726;1254;94256;-80
2024/01/31 00:47:29;;;;;;;19.10;10.20;;;;;;;0.78;66.26;100640.48;108701;1253;94767;-77
2024/01/31 00:49:58;;;;;;;21.30;9.90;;;;;;;0.75;66.34;100635.09;108705;1254;109877;-80
2024/01/31 00:52:26;;;;;;;17.50;8.40;;;;;;;0.73;66.44;100632.48;108769;1253;94367;-78
2024/01/31 00:54:54;;;;;;;13.90;8.90;;;;;;;0.73;66.46;100641.91;108636;1254;107335;-80
2024/01/31 00:57:21;;;;;;;16.00;8.60;;;;;;;0.72;66.49;100635.29;108664;1254;94306;-79
2024/01/31 00:59:49;;;;;;;15.70;9.00;;;;;;;0.72;66.49;100638.77;108575;1254;94785;-77
2024/01/31 01:02:17;;;;;;;17.50;8.20;;;;;;;0.71;66.42;100634.23;108654;1254;109998;-79
2024/01/31 01:04:45;;;;;;;16.40;9.50;;;;;;;0.72;66.63;100636.85;108688;1253;96601;-79
2024/01/31 01:07:13;;;;;;;17.60;9.70;;;;;;;0.72;66.42;100638.78;108665;1254;107265;-79
2024/01/31 01:09:40;;;;;;;17.90;9.90;;;;;;;0.72;66.58;100634.41;108626;1254;94527;-79
2024/01/31 01:12:08;;;;;;;17.30;8.80;;;;;;;0.74;66.70;100634.23;108701;1253;94282;-79
2024/01/31 01:14:36;;;;;;;17.70;9.50;;;;;;;0.74;66.64;100632.47;108664;1254;109395;-81
2024/01/31 01:17:04;;;;;;;16.20;9.10;;;;;;;0.74;66.68;100625.66;108697;1253;95626;-80
2024/01/31 01:19:31;;;;;;;21.90;10.60;;;;;;;0.74;66.67;100626.89;108668;1254;107857;-80
2024/01/31 01:22:00;;;;;;;19.50;10.60;;;;;;;0.73;66.71;100626.19;108651;1253;94319;-80
2024/01/31 01:24:28;;;;;;;18.90;10.00;;;;;;;0.74;66.65;100625.84;108721;1253;94371;-78
2024/01/31 01:26:56;;;;;;;16.90;9.20;;;;;;;0.73;66.68;100622.70;108573;1254;109994;-80
2024/01/31 01:29:23;;;;;;;13.80;8.10;;;;;;;0.73;66.73;100624.45;108739;1253;94779;-79
2024/01/31 01:31:51;;;;;;;19.40;9.50;;;;;;;0.73;66.64;100624.80;108654;1253;107683;-80
2024/01/31 01:34:19;;;;;;;18.80;10.80;;;;;;;0.72;66.86;100621.84;108714;1252;94306;-79
2024/01/31 01:36:48;;;;;;;19.70;10.50;;;;;;;0.70;66.54;100620.45;108735;1252;94522;-76
2024/01/31 01:39:15;;;;;;;17.50;10.10;;;;;;;0.71;66.73;100620.80;108665;1253;110025;-78
2024/01/31 01:41:48;;;;;;;18.20;9.10;;;;;;;0.70;66.84;100623.61;108709;1253;96086;-80
2024/01/31 01:44:16;;;;;;;17.10;9.60;;;;;;;0.69;66.86;100622.89;108656;1252;107467;-79
2024/01/31 01:46:44;;;;;;;15.30;7.70;;;;;;;0.69;66.99;100621.33;108696;1253;94640;-80
2024/01/31 01:49:13;;;;;;;18.50;8.80;;;;;;;0.70;66.84;100621.85;108711;1253;94245;-78
2024/01/31 01:51:42;;;;;;;18.80;10.10;;;;;;;0.69;66.98;100616.44;108722;1253;109955;-78
2024/01/31 01:54:12;;;;;;;20.00;10.10;;;;;;;0.66;66.87;100614.53;108716;1253;94786;-80
2024/01/31 01:56:43;;;;;;;15.10;7.90;;;;;;;0.64;66.78;100615.41;108575;1253;107177;-79
2024/01/31 01:59:13;;;;;;;20.30;10.30;;;;;;;0.63;66.98;100613.86;108605;1253;94430;-80
2024/01/31 02:01:42;;;;;;;15.70;9.30;;;;;;;0.63;67.03;100608.45;108613;1253;94263;-80
2024/01/31 02:04:10;;;;;;;17.80;8.60;;;;;;;0.63;67.07;100602.86;108745;1253;109898;-78
2024/01/31 02:06:39;;;;;;;17.50;8.10;;;;;;;0.63;67.05;100600.23;108544;1254;95785;-80
2024/01/31 02:09:07;;;;;;;16.30;9.20;;;;;;;0.62;66.96;100599.91;108651;1253;107579;-80
2024/01/31 02:11:35;;;;;;;16.40;8.70;;;;;;;0.61;66.97;100596.77;108607;1253;94325;-78
2024/01/31 02:14:03;;;;;;;13.40;7.90;;;;;;;0.61;66.98;100596.41;108716;1253;94643;-80
2024/01/31 02:16:31;;;;;;;20.00;10.40;;;;;;;0.59;67.01;100600.10;108670;1253;108007;-81
2024/01/31 02:18:59;;;;;;;15.40;8.70;;;;;;;0.57;67.11;100593.30;108690;1253;95034;-80
2024/01/31 02:21:27;;;;;;;18.50;10.10;;;;;;;0.57;67.18;100596.46;108627;1253;107393;-80
2024/01/31 02:23:55;;;;;;;16.50;8.80;;;;;;;0.55;67.00;100597.16;108644;1253;94493;-80
2024/01/31 02:26:23;;;;;;;15.80;8.70;;;;;;;0.54;67.05;100597.34;108690;1253;94475;-80
2024/01/31 02:28:51;;;;;;;18.90;10.00;;;;;;;0.53;67.10;100599.96;108634;1253;110060;-80
2024/01/31 02:31:18;;;;;;;17.00;9.50;;;;;;;0.53;67.13;100601.54;108690;1253;96071;-80
2024/01/31 02:33:46;;;;;;;19.80;8.90;;;;;;;0.53;67.05;100595.78;108586;1253;106195;-80
2024/01/31 02:36:14;;;;;;;16.30;9.40;;;;;;;0.53;67.09;100595.77;108569;1253;94284;-80
2024/01/31 02:38:42;;;;;;;15.50;8.80;;;;;;;0.53;66.93;100597.35;108644;1253;94378;-81
2024/01/31 02:41:10;;;;;;;13.70;7.50;;;;;;;0.53;67.24;100594.38;108667;1253;110092;-80
2024/01/31 02:43:37;;;;;;;15.20;8.50;;;;;;;0.52;67.15;100589.50;108635;1253;95186;-79
2024/01/31 02:46:05;;;;;;;16.80;8.90;;;;;;;0.52;67.31;100589.15;108589;1253;105815;-77
2024/01/31 02:48:33;;;;;;;15.60;8.40;;;;;;;0.50;67.15;100588.64;108615;1253;94333;-81
2024/01/31 02:51:01;;;;;;;17.80;10.30;;;;;;;0.51;67.27;100584.44;108712;1253;94716;-80
2024/01/31 02:53:29;;;;;;;18.20;9.20;;;;;;;0.50;67.40;100579.92;108692;1253;110247;-80
2024/01/31 02:55:56;;;;;;;17.90;9.30;;;;;;;0.50;67.14;100580.79;108686;1253;95479;-80
2024/01/31 02:58:24;;;;;;;17.10;8.90;;;;;;;0.49;67.26;100576.61;108735;1253;108468;-80
2024/01/31 03:00:52;;;;;;;17.00;9.50;;;;;;;0.48;67.44;100575.91;108633;1253;94295;-80
2024/01/31 03:03:20;;;;;;;16.30;9.40;;;;;;;0.47;67.33;100579.77;108662;1253;95509;-80
2024/01/31 03:05:48;;;;;;;16.30;8.60;;;;;;;0.46;67.36;100577.84;108684;1253;109966;-79
2024/01/31 03:08:16;;;;;;;16.80;8.90;;;;;;;0.47;67.26;100580.10;108752;1253;95487;-79
2024/01/31 03:10:44;;;;;;;17.40;9.00;;;;;;;0.48;67.40;100580.10;108605;1253;107457;-80
2024/01/31 03:13:12;;;;;;;14.10;7.40;;;;;;;0.51;67.41;100585.67;108671;1253;94295;-75
2024/01/31 03:15:40;;;;;;;16.00;8.50;;;;;;;0.52;67.47;100585.84;108637;1253;94614;-80
2024/01/31 03:18:08;;;;;;;16.60;8.20;;;;;;;0.51;67.38;100582.88;108579;1256;109800;-80
2024/01/31 03:20:35;;;;;;;18.10;8.70;;;;;;;0.49;67.34;100584.64;108712;1253;94541;-78
2024/01/31 03:23:04;;;;;;;16.90;9.80;;;;;;;0.49;67.46;100589.00;108571;1253;107375;-78
2024/01/31 03:25:31;;;;;;;18.70;9.80;;;;;;;0.49;67.55;100592.84;108658;1253;94536;-79
2024/01/31 03:28:00;;;;;;;21.00;10.90;;;;;;;0.48;67.40;100589.35;108571;1253;95997;-79
2024/01/31 03:30:27;;;;;;;19.00;8.90;;;;;;;0.47;67.49;100590.75;108609;1253;109407;-79
2024/01/31 03:32:55;;;;;;;15.10;7.60;;;;;;;0.48;67.58;100588.13;108677;1253;94682;-78
2024/01/31 03:35:23;;;;;;;21.40;10.20;;;;;;;0.48;67.49;100582.89;108620;1253;107608;-79
2024/01/31 03:37:51;;;;;;;15.30;8.80;;;;;;;0.47;67.52;100581.85;108650;1253;94308;-80
2024/01/31 03:40:19;;;;;;;17.30;8.80;;;;;;;0.48;67.36;100580.80;108667;1253;94536;-80
2024/01/31 03:42:47;;;;;;;16.20;8.60;;;;;;;0.47;67.50;100583.42;108663;1253;109948;-80
2024/01/31 03:45:15;;;;;;;15.50;8.00;;;;;;;0.47;67.67;100582.55;108708;1253;95230;-80
2024/01/31 03:47:42;;;;;;;17.90;8.40;;;;;;;0.45;67.49;100577.15;108604;1253;107409;-80
2024/01/31 03:50:10;;;;;;;15.80;7.50;;;;;;;0.44;67.41;100581.86;108707;1253;94477;-80
2024/01/31 03:52:38;;;;;;;16.30;9.00;;;;;;;0.42;67.57;100578.20;108638;1253;94835;-80
2024/01/31 03:55:06;;;;;;;19.60;9.40;;;;;;;0.42;67.61;100578.75;108687;1253;109005;-80
2024/01/31 03:57:36;;;;;;;16.20;9.00;;;;;;;0.41;67.53;100580.14;108678;1253;95459;-80
2024/01/31 04:00:09;;;;;;;20.40;9.90;;;;;;;0.42;67.59;100580.31;108618;1253;105958;-77
2024/01/31 04:02:37;;;;;;;14.80;8.90;;;;;;;0.40;67.51;100577.02;108671;1253;94695;-80
2024/01/31 04:05:09;;;;;;;18.60;9.60;;;;;;;0.39;67.55;100578.26;108668;1254;94428;-80
2024/01/31 04:07:38;;;;;;;16.60;9.40;;;;;;;0.39;67.55;100577.73;108681;1253;110700;-80
2024/01/31 04:10:10;;;;;;;16.50;8.10;;;;;;;0.39;67.65;100573.19;108641;1253;96535;-81
2024/01/31 04:12:38;;;;;;;16.60;8.30;;;;;;;0.37;67.76;100576.69;108639;1253;107672;-80
2024/01/31 04:15:06;;;;;;;15.50;8.10;;;;;;;0.36;67.60;100579.48;108678;1253;94249;-78
2024/01/31 04:17:34;;;;;;;16.40;8.40;;;;;;;0.35;67.76;100579.48;108627;1253;94603;-81
2024/01/31 04:20:02;;;;;;;17.40;10.00;;;;;;;0.33;67.74;100582.65;108734;1253;109862;-80
2024/01/31 04:22:30;;;;;;;18.20;9.00;;;;;;;0.32;67.73;100581.09;108680;1253;95323;-78
2024/01/31 04:24:58;;;;;;;19.70;9.00;;;;;;;0.31;67.62;100584.74;108631;1253;108397;-77
2024/01/31 04:27:26;;;;;;;14.80;7.60;;;;;;;0.31;67.67;100585.79;108677;1253;94231;-79
2024/01/31 04:29:54;;;;;;;17.90;9.00;;;;;;;0.28;67.77;100588.77;108663;1253;95010;-80
2024/01/31 04:32:23;;;;;;;19.20;9.50;;;;;;;0.28;67.83;100586.86;108682;1253;109669;-79
2024/01/31 04:34:51;;;;;;;20.00;10.10;;;;;;;0.27;67.73;100587.73;108659;1253;95515;-77
2024/01/31 04:37:19;;;;;;;17.70;8.80;;;;;;;0.25;67.95;100584.43;108646;1253;107817;-80
2024/01/31 04:39:50;;;;;;;20.50;11.00;;;;;;;0.22;67.82;100582.35;108673;1253;94410;-77
2024/01/31 04:42:18;;;;;;;22.40;11.40;;;;;;;0.19;67.77;100587.09;108694;1253;94375;-80
2024/01/31 04:44:46;;;;;;;16.20;8.60;;;;;;;0.19;67.58;100585.34;108636;1253;109443;-78
2024/01/31 04:47:15;;;;;;;19.60;9.90;;;;;;;0.19;67.85;100586.74;108672;1253;94689;-80
2024/01/31 04:49:43;;;;;;;21.70;10.40;;;;;;;0.18;67.77;100590.59;108682;1253;107647;-80
2024/01/31 04:52:11;;;;;;;16.60;10.10;;;;;;;0.18;67.97;100587.80;108681;1253;94349;-80
2024/01/31 04:54:39;;;;;;;18.60;9.00;;;;;;;0.17;67.92;100593.74;108662;1253;94321;-80
2024/01/31 04:57:07;;;;;;;15.00;7.80;;;;;;;0.16;68.02;100597.05;108673;1253;109946;-80
2024/01/31 04:59:39;;;;;;;20.40;10.40;;;;;;;0.17;67.90;100597.40;108684;1253;95295;-81
2024/01/31 05:02:07;;;;;;;19.30;10.70;;;;;;;0.17;68.00;100598.80;108552;1253;106351;-81
2024/01/31 05:04:39;;;;;;;20.60;9.80;;;;;;;0.17;67.98;100602.80;108659;1253;94925;-77
2024/01/31 05:07:07;;;;;;;16.40;9.80;;;;;;;0.16;67.97;100601.07;108562;1253;94644;-79
2024/01/31 05:09:36;;;;;;;16.60;8.90;;;;;;;0.15;67.96;100600.02;108593;1253;109665;-77
2024/01/31 05:12:04;;;;;;;15.60;8.30;;;;;;;0.14;68.01;100600.20;108635;1253;95784;-82
2024/01/31 05:14:32;;;;;;;16.70;8.60;;;;;;;0.14;68.00;100597.23;108641;1253;105509;-77
2024/01/31 05:17:00;;;;;;;20.30;10.00;;;;;;;0.13;67.95;100597.59;108672;1253;94564;-80
2024/01/31 05:19:28;;;;;;;18.50;10.60;;;;;;;0.14;68.10;100599.67;108632;1253;95169;-80
2024/01/31 05:21:58;;;;;;;18.40;9.50;;;;;;;0.14;68.15;100601.95;108698;1253;110074;-78
2024/01/31 05:24:25;;;;;;;19.50;8.60;;;;;;;0.12;67.94;100599.86;108761;1253;95049;-82
2024/01/31 05:26:53;;;;;;;19.50;10.80;;;;;;;0.12;68.12;100597.95;108465;1253;107645;-82
2024/01/31 05:29:21;;;;;;;15.60;9.00;;;;;;;0.11;68.12;100597.08;108667;1253;94276;-80
2024/01/31 05:31:49;;;;;;;16.20;8.40;;;;;;;0.10;68.14;100597.60;108655;1253;94308;-83
2024/01/31 05:34:17;;;;;;;16.30;9.00;;;;;;;0.10;68.16;100592.55;108787;1253;110640;-80
2024/01/31 05:36:45;;;;;;;19.90;10.10;;;;;;;0.09;68.23;100586.09;108662;1253;95516;-83
2024/01/31 05:39:12;;;;;;;17.80;9.00;;;;;;;0.10;68.24;100585.91;108661;1253;107354;-83
2024/01/31 05:41:44;;;;;;;16.40;9.50;;;;;;;0.10;68.24;100590.10;108673;1253;94565;-81
2024/01/31 05:44:11;;;;;;;15.50;7.80;;;;;;;0.10;68.32;100587.84;108761;1253;94489;-80
2024/01/31 05:46:39;;;;;;;18.90;9.40;;;;;;;0.09;68.28;100591.68;108686;1253;109439;-83
2024/01/31 05:49:07;;;;;;;18.80;9.30;;;;;;;0.08;68.43;100589.94;108643;1253;96127;-80
2024/01/31 05:51:35;;;;;;;17.50;9.70;;;;;;;0.07;68.32;100584.35;108587;1253;107606;-82
2024/01/31 05:54:03;;;;;;;14.70;7.10;;;;;;;0.08;68.41;100582.95;108672;1253;94289;-81
2024/01/31 05:56:31;;;;;;;22.50;10.30;;;;;;;0.08;68.35;100586.79;108619;1253;94275;-82
2024/01/31 05:58:59;;;;;;;20.90;9.70;;;;;;;0.06;68.32;100588.55;108754;1253;108584;-77
2024/01/31 06:01:27;;;;;;;17.20;8.20;;;;;;;0.09;68.31;100585.91;108652;1253;95334;-75
2024/01/31 06:03:55;;;;;;;18.70;10.20;;;;;;;0.12;68.43;100589.75;108610;1253;107620;-77
2024/01/31 06:06:23;;;;;;;20.70;11.10;;;;;;;0.15;68.41;100589.73;108474;1253;94957;-76
2024/01/31 06:08:51;;;;;;;19.60;10.10;;;;;;;0.16;68.35;100588.16;108610;1253;95402;-74
2024/01/31 06:11:18;;;;;;;17.90;9.00;;;;;;;0.16;68.50;100594.44;108607;1253;108710;-74
2024/01/31 06:13:46;;;;;;;19.40;9.40;;;;;;;0.15;68.39;100598.45;108706;1253;95520;-74
2024/01/31 06:16:14;;;;;;;17.70;9.00;;;;;;;0.16;68.52;100601.07;108640;1253;107814;-75
2024/01/31 06:18:43;;;;;;;23.60;10.40;;;;;;;0.16;68.35;100603.51;108577;1253;94447;-74
2024/01/31 06:21:10;;;;;;;22.50;10.50;;;;;;;0.15;68.44;100604.03;108640;1253;94644;-75
2024/01/31 06:23:38;;;;;;;17.50;10.00;;;;;;;0.16;68.45;100609.27;108311;1253;109914;-75
2024/01/31 06:26:06;;;;;;;19.60;9.80;;;;;;;0.16;68.44;100613.09;108235;1253;95214;-75
2024/01/31 06:28:38;;;;;;;23.80;10.10;;;;;;;0.16;68.49;100615.02;108211;1253;107627;-75
2024/01/31 06:31:15;;;;;;;19.80;9.30;;;;;;;0.15;68.44;100610.67;108288;1253;94645;-75
2024/01/31 06:33:45;;;;;;;18.80;8.70;;;;;;;0.14;68.49;100612.41;108604;1253;94646;-75
2024/01/31 06:36:13;;;;;;;22.30;10.40;;;;;;;0.15;68.48;100612.76;108658;1253;109891;-75
2024/01/31 06:38:40;;;;;;;14.80;7.80;;;;;;;0.16;68.58;100612.58;108622;1253;94795;-75
2024/01/31 06:41:08;;;;;;;18.60;9.80;;;;;;;0.18;68.57;100619.71;108617;1253;107642;-75
2024/01/31 06:43:36;;;;;;;16.00;9.30;;;;;;;0.18;68.54;100621.47;108668;1253;94370;-75
2024/01/31 06:46:04;;;;;;;17.10;9.50;;;;;;;0.21;68.59;100621.09;108659;1253;94417;-75
2024/01/31 06:48:32;;;;;;;14.40;7.40;;;;;;;0.23;68.64;100627.02;108686;1253;110004;-75
2024/01/31 06:51:00;;;;;;;20.20;10.00;;;;;;;0.24;68.65;100625.08;108701;1253;94863;-75
2024/01/31 06:53:29;;;;;;;19.20;9.70;;;;;;;0.25;68.67;100622.46;108656;1253;108235;-75
2024/01/31 06:55:57;;;;;;;18.40;10.10;;;;;;;0.27;68.68;100626.48;108614;1253;94532;-75
2024/01/31 06:58:24;;;;;;;16.80;8.10;;;;;;;0.27;68.68;100628.04;108505;1253;95630;-75
2024/01/31 07:00:55;;;;;;;20.50;10.50;;;;;;;0.30;68.79;100627.85;108694;1253;108377;-75
2024/01/31 07:03:23;;;;;;;19.50;9.50;;;;;;;0.32;68.73;100633.09;108646;1255;94408;-75
2024/01/31 07:05:51;;;;;;;21.00;11.00;;;;;;;0.35;68.72;100633.24;108542;1253;107713;-75
2024/01/31 07:08:19;;;;;;;21.60;10.70;;;;;;;0.39;68.85;100630.24;108326;1253;94295;-74
2024/01/31 07:10:47;;;;;;;17.00;9.90;;;;;;;0.44;68.72;100631.63;108581;1253;94512;-74
2024/01/31 07:13:15;;;;;;;19.50;11.00;;;;;;;0.48;68.92;100631.23;108560;1253;109866;-77
2024/01/31 07:15:43;;;;;;;19.60;10.10;;;;;;;0.50;68.81;100625.83;108693;1253;95650;-77
2024/01/31 07:18:11;;;;;;;14.90;7.20;;;;;;;0.54;68.89;100624.56;108659;1253;107527;-77
2024/01/31 07:20:39;;;;;;;19.80;9.40;;;;;;;0.59;68.96;100620.52;108714;1253;94370;-76
2024/01/31 07:23:07;;;;;;;19.50;9.40;;;;;;;0.63;68.91;100619.44;108695;1253;95624;-75
2024/01/31 07:25:38;;;;;;;20.70;11.10;;;;;;;0.67;69.01;100623.45;108687;1253;109941;-77
2024/01/31 07:28:07;;;;;;;23.10;10.70;;;;;;;0.72;69.06;100624.11;108733;1253;94724;-76
2024/01/31 07:30:35;;;;;;;20.20;9.60;;;;;;;0.78;69.07;100622.14;108699;1253;107618;-76
2024/01/31 07:33:03;;;;;;;23.00;11.90;;;;;;;0.84;68.98;100625.92;108660;1253;94333;-77
2024/01/31 07:35:31;;;;;;;22.80;11.70;;;;;;;0.89;68.92;100626.77;108652;1253;94670;-77
2024/01/31 07:37:58;;;;;;;21.00;11.90;;;;;;;0.93;69.12;100628.84;108682;1253;109817;-76
2024/01/31 07:40:26;;;;;;;19.20;10.50;;;;;;;0.99;69.23;100631.59;108735;1253;95438;-76
2024/01/31 07:42:54;;;;;;;18.70;9.20;;;;;;;1.06;69.13;100632.73;108656;1253;107729;-77
2024/01/31 07:45:22;;;;;;;17.90;10.00;;;;;;;1.12;69.12;100636.02;108753;1253;94302;-76
2024/01/31 07:47:50;;;;;;;16.80;10.30;;;;;;;1.18;69.31;100634.41;108697;1253;94517;-77
2024/01/31 07:50:18;;;;;;;17.30;10.40;;;;;;;1.22;69.31;100631.39;108736;1253;109902;-77
2024/01/31 07:52:46;;;;;;;19.40;10.10;;;;;;;1.30;69.15;100630.79;108717;1253;96249;-77
2024/01/31 07:55:14;;;;;;;21.70;10.90;;;;;;;1.35;69.33;100627.42;108693;1253;107595;-77
2024/01/31 07:57:41;;;;;;;24.70;12.10;;;;;;;1.41;69.30;100632.79;108728;1253;94822;-75
2024/01/31 08:00:10;;;;;;;16.10;8.30;;;;;;;1.47;69.34;100633.94;108756;1253;94355;-76
2024/01/31 08:02:38;;;;;;;19.00;8.60;;;;;;;1.53;69.28;100634.07;108781;1253;108895;-76
2024/01/31 08:05:06;;;;;;;21.60;10.90;;;;;;;1.57;69.43;100635.25;108722;1253;95225;-76
2024/01/31 08:07:34;;;;;;;20.40;10.90;;;;;;;1.63;69.13;100633.27;108625;1253;107567;-78
2024/01/31 08:10:05;;;;;;;21.80;11.20;;;;;;;1.70;69.41;100628.47;108689;1253;94597;-75
2024/01/31 08:12:33;;;;;;;15.20;9.80;;;;;;;1.75;69.50;100634.54;108710;1253;94260;-76
2024/01/31 08:15:00;;;;;;;20.10;10.80;;;;;;;1.79;69.57;100630.11;108722;1253;108574;-76
2024/01/31 08:17:28;;;;;;;22.20;11.30;;;;;;;1.84;69.13;100633.73;108747;1253;94407;-75
2024/01/31 08:19:58;;;;;;;19.00;10.70;;;;;;;1.91;69.17;100635.92;108675;1253;107470;-76
2024/01/31 08:22:25;;;;;;;23.10;11.70;;;;;;;1.98;69.42;100631.66;108679;1253;95441;-76
2024/01/31 08:24:53;;;;;;;25.90;12.40;;;;;;;2.04;69.32;100633.13;108693;1253;94484;-76
2024/01/31 08:27:21;;;;;;;24.20;13.10;;;;;;;2.11;69.50;100634.98;108662;1253;109875;-76
2024/01/31 08:29:51;;;;;;;23.10;12.30;;;;;;;2.16;69.23;100634.21;108657;1253;95958;-75
2024/01/31 08:32:19;;;;;;;20.50;11.10;;;;;;;2.21;69.13;100635.91;108747;1252;106794;-76
2024/01/31 08:34:47;;;;;;;23.60;12.80;;;;;;;2.28;69.01;100635.30;108704;1253;94276;-76
2024/01/31 08:37:15;;;;;;;21.90;14.00;;;;;;;2.32;69.05;100635.05;108677;1254;94366;-76
2024/01/31 08:39:43;;;;;;;23.30;13.10;;;;;;;2.36;69.43;100639.21;108738;1253;109278;-76
2024/01/31 08:42:11;;;;;;;25.30;13.00;;;;;;;2.41;69.25;100644.05;108731;1253;95532;-76
2024/01/31 08:44:39;;;;;;;21.80;11.20;;;;;;;2.46;69.43;100639.94;108717;1253;107464;-76
2024/01/31 08:47:07;;;;;;;23.40;11.00;;;;;;;2.52;69.14;100641.61;108759;1253;94402;-76
2024/01/31 08:49:47;;;;;;;21.40;11.50;;;;;;;2.59;69.37;100643.98;108730;1253;94282;-77
2024/01/31 08:52:15;;;;;;;19.30;10.00;;;;;;;2.66;69.61;100636.16;108682;1253;110121;-76
2024/01/31 08:54:43;;;;;;;21.30;10.90;;;;;;;2.78;69.42;100638.96;108752;1253;95473;-75
2024/01/31 08:57:11;;;;;;;23.60;10.80;;;;;;;2.89;69.50;100640.36;108563;1254;107449;-76
2024/01/31 08:59:39;;;;;;;16.70;8.60;;;;;;;2.97;69.49;100634.98;108713;1253;94610;-76
2024/01/31 09:02:07;;;;;;;21.10;10.80;;;;;;;3.03;69.34;100636.66;108745;1253;95428;-77
2024/01/31 09:04:36;;;;;;;23.10;11.50;;;;;;;3.07;69.37;100638.31;108706;1253;109773;-76
2024/01/31 09:07:04;;;;;;;20.20;11.50;;;;;;;3.12;69.51;100634.03;108754;1253;94306;-77
2024/01/31 09:09:33;;;;;;;21.40;11.20;;;;;;;3.17;69.31;100642.38;108725;1253;107624;-77
2024/01/31 09:12:01;;;;;;;21.70;10.60;;;;;;;3.20;69.06;100638.83;108683;1253;94559;-77
2024/01/31 09:14:29;;;;;;;23.80;11.50;;;;;;;3.24;69.34;100642.27;108740;1253;94230;-77
2024/01/31 09:16:57;;;;;;;20.90;11.10;;;;;;;3.27;69.29;100643.07;108786;1253;109890;-77
2024/01/31 09:19:25;;;;;;;23.60;11.70;;;;;;;3.28;69.16;100642.17;108755;1253;94758;-77
2024/01/31 09:21:52;;;;;;;30.00;13.30;;;;;;;3.28;68.91;100644.44;108778;1253;107667;-77
2024/01/31 09:24:20;;;;;;;20.90;11.20;;;;;;;3.29;69.10;100639.52;108708;1253;94285;-76
2024/01/31 09:26:48;;;;;;;25.70;12.70;;;;;;;3.30;68.99;100634.27;108789;1253;94240;-77
2024/01/31 09:29:16;;;;;;;25.00;12.50;;;;;;;3.32;69.09;100633.36;108705;1253;109409;-77
2024/01/31 09:31:44;;;;;;;19.60;10.10;;;;;;;3.33;69.11;100627.55;108733;1253;95629;-76
2024/01/31 09:34:12;;;;;;;18.80;10.90;;;;;;;3.36;69.17;100632.22;108643;1253;107283;-77
2024/01/31 09:36:40;;;;;;;19.00;11.10;;;;;;;3.41;69.14;100629.70;108690;1253;94238;-77
2024/01/31 09:39:08;;;;;;;18.10;10.50;;;;;;;3.47;69.00;100631.85;108744;1253;94357;-76
2024/01/31 09:41:36;;;;;;;19.50;11.40;;;;;;;3.54;69.21;100630.84;108742;1253;108829;-77
2024/01/31 09:44:04;;;;;;;19.00;10.80;;;;;;;3.62;69.10;100629.31;108795;1253;95541;-76
2024/01/31 09:46:32;;;;;;;17.20;8.70;;;;;;;3.68;69.23;100627.09;108707;1253;106433;-77
2024/01/31 09:49:00;;;;;;;23.70;11.10;;;;;;;3.73;69.18;100625.41;108717;1253;94612;-76
2024/01/31 09:51:29;;;;;;;23.90;12.00;;;;;;;3.77;69.36;100624.80;108716;1253;94261;-76
2024/01/31 09:53:58;;;;;;;22.60;11.70;;;;;;;3.83;69.01;100620.65;108667;1253;109904;-76
2024/01/31 09:56:31;;;;;;;19.00;10.90;;;;;;;3.88;69.38;100623.19;108600;1253;94608;-77
2024/01/31 09:59:00;;;;;;;18.60;10.90;;;;;;;3.91;69.09;100625.23;108719;1253;107633;-76
2024/01/31 10:01:29;;;;;;;19.30;11.10;;;;;;;3.93;69.11;100625.71;108737;1253;94737;-76
2024/01/31 10:04:00;;;;;;;19.70;10.40;;;;;;;3.94;68.99;100621.14;108703;1253;94563;-77
2024/01/31 10:06:29;;;;;;;20.20;12.10;;;;;;;3.93;68.92;100623.79;108606;1253;111115;-77
2024/01/31 10:08:57;;;;;;;18.00;9.60;;;;;;;3.92;68.95;100623.45;108743;1254;95495;-77
2024/01/31 10:11:28;;;;;;;18.70;10.70;;;;;;;3.92;68.82;100620.11;108695;1253;107586;-76
2024/01/31 10:13:57;;;;;;;18.80;10.80;;;;;;;3.92;68.98;100620.64;108750;1253;95064;-76
2024/01/31 10:16:25;;;;;;;19.40;10.70;;;;;;;3.91;68.88;100618.73;108756;1253;94590;-77
2024/01/31 10:18:53;;;;;;;23.60;11.50;;;;;;;3.92;68.93;100620.83;108746;1253;109857;-77
2024/01/31 10:21:21;;;;;;;17.00;9.60;;;;;;;3.89;68.77;100615.09;108709;1257;95280;-76
2024/01/31 10:23:59;;;;;;;19.20;11.00;;;;;;;3.87;68.70;100611.98;108728;1253;107118;-76
2024/01/31 10:26:27;;;;;;;19.80;10.80;;;;;;;3.85;68.82;100611.84;108636;1253;95424;-77
2024/01/31 10:29:00;;;;;;;21.10;11.60;;;;;;;3.84;68.75;100610.45;108653;1255;94721;-76
2024/01/31 10:31:38;;;;;;;22.20;11.40;;;;;;;3.82;68.63;100611.37;108682;1253;109480;-77
2024/01/31 10:34:08;;;;;;;22.30;9.50;;;;;;;3.80;68.88;100611.06;108766;1253;96216;-77
2024/01/31 10:36:40;;;;;;;21.60;11.10;;;;;;;3.78;68.54;100609.00;108753;1253;108838;-77
2024/01/31 10:39:13;;;;;;;21.80;11.60;;;;;;;3.78;68.65;100607.77;108750;1253;94268;-77
2024/01/31 10:41:42;;;;;;;23.70;12.20;;;;;;;3.77;68.51;100605.31;108729;1253;94639;-77
2024/01/31 10:44:14;;;;;;;19.40;11.30;;;;;;;3.75;68.68;100609.23;108697;1253;110066;-77
2024/01/31 10:46:46;;;;;;;24.80;12.70;;;;;;;3.73;68.50;100607.67;108741;1253;94505;-76
2024/01/31 10:49:16;;;;;;;25.10;12.60;;;;;;;3.73;68.39;100607.86;108750;1253;106269;-77
2024/01/31 10:51:49;;;;;;;22.40;11.50;;;;;;;3.73;68.51;100609.78;108774;1257;94326;-77
2024/01/31 10:54:22;;;;;;;22.10;11.90;;;;;;;3.72;68.43;100609.98;108612;1253;94696;-77
2024/01/31 10:56:51;;;;;;;26.10;13.30;;;;;;;3.71;68.62;100604.73;108739;1253;109716;-77
2024/01/31 10:59:19;;;;;;;24.00;12.30;;;;;;;3.70;68.39;100604.05;108779;1253;95766;-77
2024/01/31 11:03:34;;;;;;;;;;;;;;;3.70;68.38;100611.08;101867;1295;636074;-77
2024/01/31 11:06:03;;;;;;;21.70;11.90;;;;;;;3.64;68.47;100608.23;105013;1270;94308;-77
2024/01/31 11:08:31;;;;;;;24.90;13.00;;;;;;;3.64;68.41;100608.92;105054;1263;94858;-77
2024/01/31 11:10:59;;;;;;;27.10;14.50;;;;;;;3.64;68.34;100610.48;105667;1264;107224;-77
2024/01/31 11:13:27;;;;;;;36.40;17.40;;;;;;;3.65;68.30;100605.23;106258;1266;95488;-77
2024/01/31 11:15:54;;;;;;;39.00;17.00;;;;;;;3.67;68.33;100610.25;105078;1266;108059;-78